Lonetree, Wyoming
Current Conditions -  °F | °C
As of 10:35 PM on Tuesday 21 Oct 2014 (Local Time) from KFBR Reporting Station
Clear Clear  
Wind Chill: 35°   Ceiling: Unl
Heat Index: 39°   Visibility: NA
Dew Point: 27°   Wind: 6mph
Humidity: 62%   Direction: 280°W
Pressure: 30.16"   Gusts: NA
Location:  41.0297°N, 110.145°W
Report Text: KFBR 220435Z AUTO 28005KT CLR 04/M03 A3016 RMK AO2 T00381028 PWINO
Loading
Personal Weather Stations






























Interactive Weather Map New forecast layout! Learn more

10-Day Weather Forecast

Advertisements
Track Severe Weather on mobile